Calgary, Canada
Current Conditions -  °F | °C
As of 12:00 AM on Wednesday 22 Oct 2014 (Local Time) from CYYC Reporting Station
Clear Clear  
Wind Chill: 46°   Ceiling: Unl
Heat Index: 48°   Visibility: 15mi
Dew Point: 27°   Wind: 6mph
Humidity: 43%   Direction: 260°W
Pressure: 29.76"   Gusts: NA
Location:  51.05°N, 114.06°W
Report Text: CYYC 220600Z 26005KT 15SM SKC 09/M03 A2976 RMK SLP090 DENSITY ALT 3900FT
Loading
Personal Weather Stations






























Interactive Weather Map New forecast layout! Learn more

10-Day Weather Forecast

Advertisements
Track Severe Weather on mobile